CEB892 RPVE-RPLL
Flight info
| Callsign | CEB892 |
|---|---|
| Flight time | 0h 36m |
| Altitude | 23000 |
| Route | RPVE 06 MINO8A MINOR B473 LAIYA LAIY7R RPLL R06 GONDO |
| Aircraft | A320/L-V/N |
Departure
| Time | 2026-04-20 13:57 |
|---|---|
| Airport | Godofredo P. Ramos Airport (RPVE) |
Arrival
| Time | 2026-04-20 14:33 |
|---|---|
| Airport | Ninoy Aquino International Airport (RPLL) |
| Time | Latitude | Longitude | Altitude | Speed | Heading |
|---|---|---|---|---|---|
| 2026-04-20 13:40 | 11.92680 | 121.96430 | 62 ft | 0 kts | 153° |
| 2026-04-20 13:48 | 11.92687 | 121.96426 | 63 ft | 2 kts | 152° |
| 2026-04-20 13:48 | 11.92700 | 121.96420 | 63 ft | 2 kts | 153° |
| 2026-04-20 13:48 | 11.92714 | 121.96413 | 63 ft | 2 kts | 174° |
| 2026-04-20 13:49 | 11.92729 | 121.96414 | 63 ft | 2 kts | 200° |
| 2026-04-20 13:49 | 11.92742 | 121.96423 | 63 ft | 2 kts | 227° |
| 2026-04-20 13:49 | 11.92747 | 121.96429 | 63 ft | 1 kts | 243° |
| 2026-04-20 13:49 | 11.92749 | 121.96435 | 63 ft | 0 kts | 244° |
| 2026-04-20 13:51 | 11.92749 | 121.96434 | 63 ft | 0 kts | 243° |
| 2026-04-20 13:52 | 11.92737 | 121.96413 | 63 ft | 5 kts | 240° |
| 2026-04-20 13:52 | 11.92714 | 121.96370 | 62 ft | 8 kts | 242° |
| 2026-04-20 13:52 | 11.92682 | 121.96306 | 61 ft | 12 kts | 243° |
| 2026-04-20 13:52 | 11.92646 | 121.96233 | 59 ft | 10 kts | 248° |
| 2026-04-20 13:53 | 11.92681 | 121.96174 | 58 ft | 11 kts | 334° |
| 2026-04-20 13:53 | 11.92754 | 121.96137 | 58 ft | 12 kts | 333° |
| 2026-04-20 13:53 | 11.92792 | 121.96072 | 57 ft | 13 kts | 249° |
| 2026-04-20 13:53 | 11.92748 | 121.95980 | 53 ft | 16 kts | 243° |
| 2026-04-20 13:54 | 11.92689 | 121.95862 | 48 ft | 21 kts | 243° |
| 2026-04-20 13:54 | 11.92617 | 121.95719 | 41 ft | 24 kts | 243° |
| 2026-04-20 13:54 | 11.92530 | 121.95544 | 31 ft | 30 kts | 243° |
| 2026-04-20 13:54 | 11.92431 | 121.95348 | 22 ft | 32 kts | 243° |
| 2026-04-20 13:55 | 11.92333 | 121.95154 | 20 ft | 26 kts | 243° |
| 2026-04-20 13:55 | 11.92258 | 121.95048 | 19 ft | 12 kts | 219° |
| 2026-04-20 13:55 | 11.92256 | 121.95013 | 19 ft | 3 kts | 39° |
| 2026-04-20 13:55 | 11.92273 | 121.95035 | 19 ft | 4 kts | 60° |
| 2026-04-20 13:56 | 11.92288 | 121.95063 | 20 ft | 4 kts | 62° |
| 2026-04-20 13:56 | 11.92304 | 121.95094 | 20 ft | 6 kts | 63° |
| 2026-04-20 13:56 | 11.92424 | 121.95334 | 22 ft | 84 kts | 63° |
| 2026-04-20 13:56 | 11.92801 | 121.96088 | 196 ft | 143 kts | 62° |
| 2026-04-20 13:57 | 11.93271 | 121.97028 | 905 ft | 156 kts | 62° |
| 2026-04-20 13:57 | 11.93717 | 121.97919 | 1677 ft | 164 kts | 62° |
| 2026-04-20 13:57 | 11.94246 | 121.98986 | 2659 ft | 165 kts | 63° |
| 2026-04-20 13:57 | 11.94789 | 122.00086 | 3235 ft | 181 kts | 63° |
| 2026-04-20 13:58 | 11.95392 | 122.01299 | 3778 ft | 200 kts | 63° |
| 2026-04-20 13:58 | 11.96129 | 122.02572 | 4432 ft | 215 kts | 50° |
| 2026-04-20 13:58 | 11.97346 | 122.03547 | 5029 ft | 235 kts | 29° |
| 2026-04-20 13:58 | 11.98891 | 122.04345 | 5656 ft | 256 kts | 25° |
| 2026-04-20 13:59 | 12.00583 | 122.05154 | 6406 ft | 273 kts | 25° |
| 2026-04-20 13:59 | 12.02343 | 122.06008 | 7121 ft | 291 kts | 25° |
| 2026-04-20 13:59 | 12.04236 | 122.06947 | 7850 ft | 307 kts | 26° |
| 2026-04-20 13:59 | 12.06219 | 122.07946 | 8511 ft | 324 kts | 26° |
| 2026-04-20 14:00 | 12.08279 | 122.08987 | 9435 ft | 331 kts | 26° |
| 2026-04-20 14:00 | 12.10318 | 122.10018 | 10405 ft | 335 kts | 26° |
| 2026-04-20 14:00 | 12.12422 | 122.11078 | 11332 ft | 339 kts | 26° |
| 2026-04-20 14:00 | 12.14566 | 122.12157 | 12236 ft | 344 kts | 26° |
| 2026-04-20 14:01 | 12.16713 | 122.13240 | 13114 ft | 348 kts | 26° |
| 2026-04-20 14:01 | 12.18905 | 122.14349 | 13976 ft | 353 kts | 26° |
| 2026-04-20 14:01 | 12.21101 | 122.15462 | 14807 ft | 357 kts | 26° |
| 2026-04-20 14:01 | 12.23349 | 122.16603 | 15625 ft | 362 kts | 26° |
| 2026-04-20 14:02 | 12.25596 | 122.17744 | 16412 ft | 366 kts | 26° |
| 2026-04-20 14:02 | 12.27904 | 122.18917 | 17190 ft | 370 kts | 26° |
| 2026-04-20 14:02 | 12.30232 | 122.20099 | 17945 ft | 374 kts | 26° |
| 2026-04-20 14:02 | 12.32562 | 122.21281 | 18671 ft | 378 kts | 26° |
| 2026-04-20 14:03 | 12.35016 | 122.22191 | 19327 ft | 383 kts | 10° |
| 2026-04-20 14:03 | 12.37654 | 122.22194 | 19991 ft | 387 kts | 349° |
| 2026-04-20 14:03 | 12.40166 | 122.21221 | 20671 ft | 390 kts | 329° |
| 2026-04-20 14:03 | 12.42419 | 122.19699 | 21366 ft | 393 kts | 325° |
| 2026-04-20 14:04 | 12.44647 | 122.18107 | 21974 ft | 397 kts | 325° |
| 2026-04-20 14:04 | 12.46890 | 122.16503 | 22537 ft | 403 kts | 325° |
| 2026-04-20 14:04 | 12.49194 | 122.14869 | 22788 ft | 416 kts | 325° |
| 2026-04-20 14:04 | 12.51599 | 122.13176 | 22976 ft | 428 kts | 325° |
| 2026-04-20 14:05 | 12.54043 | 122.11464 | 22986 ft | 432 kts | 326° |
| 2026-04-20 14:05 | 12.56536 | 122.09722 | 22991 ft | 433 kts | 326° |
| 2026-04-20 14:05 | 12.59055 | 122.07967 | 22994 ft | 433 kts | 326° |
| 2026-04-20 14:05 | 12.61526 | 122.06245 | 22995 ft | 433 kts | 326° |
| 2026-04-20 14:06 | 12.63997 | 122.04525 | 22995 ft | 433 kts | 326° |
| 2026-04-20 14:06 | 12.66510 | 122.02777 | 22996 ft | 433 kts | 326° |
| 2026-04-20 14:06 | 12.69009 | 122.01038 | 22996 ft | 433 kts | 326° |
| 2026-04-20 14:06 | 12.71493 | 121.99309 | 22996 ft | 433 kts | 326° |
| 2026-04-20 14:07 | 12.73975 | 121.97581 | 22996 ft | 433 kts | 326° |
| 2026-04-20 14:07 | 12.76426 | 121.95874 | 22996 ft | 433 kts | 326° |
| 2026-04-20 14:07 | 12.78908 | 121.94145 | 22996 ft | 433 kts | 326° |
| 2026-04-20 14:07 | 12.81399 | 121.92410 | 22996 ft | 433 kts | 326° |
| 2026-04-20 14:08 | 12.83880 | 121.90681 | 22996 ft | 433 kts | 326° |
| 2026-04-20 14:08 | 12.86347 | 121.88963 | 22996 ft | 433 kts | 326° |
| 2026-04-20 14:08 | 12.88825 | 121.87234 | 22996 ft | 433 kts | 326° |
| 2026-04-20 14:08 | 12.91291 | 121.85516 | 22996 ft | 433 kts | 326° |
| 2026-04-20 14:09 | 12.93765 | 121.83790 | 22996 ft | 433 kts | 326° |
| 2026-04-20 14:09 | 12.96201 | 121.82091 | 22996 ft | 433 kts | 326° |
| 2026-04-20 14:09 | 12.98644 | 121.80386 | 22996 ft | 433 kts | 326° |
| 2026-04-20 14:09 | 13.01054 | 121.78704 | 22996 ft | 433 kts | 326° |
| 2026-04-20 14:10 | 13.03463 | 121.77023 | 22996 ft | 433 kts | 326° |
| 2026-04-20 14:10 | 13.05790 | 121.75397 | 22996 ft | 433 kts | 326° |
| 2026-04-20 14:10 | 13.07943 | 121.73895 | 22996 ft | 433 kts | 326° |
| 2026-04-20 14:10 | 13.10295 | 121.72251 | 22996 ft | 433 kts | 326° |
| 2026-04-20 14:11 | 13.12951 | 121.70404 | 22996 ft | 433 kts | 326° |
| 2026-04-20 14:11 | 13.15398 | 121.68704 | 22996 ft | 433 kts | 326° |
| 2026-04-20 14:11 | 13.17912 | 121.66955 | 22996 ft | 433 kts | 326° |
| 2026-04-20 14:11 | 13.20406 | 121.65216 | 22770 ft | 432 kts | 326° |
| 2026-04-20 14:12 | 13.22903 | 121.63479 | 22518 ft | 430 kts | 326° |
| 2026-04-20 14:12 | 13.25375 | 121.61759 | 22267 ft | 428 kts | 326° |
| 2026-04-20 14:12 | 13.27829 | 121.60048 | 22017 ft | 426 kts | 326° |
| 2026-04-20 14:12 | 13.30255 | 121.58353 | 21768 ft | 425 kts | 326° |
| 2026-04-20 14:13 | 13.32556 | 121.56744 | 21532 ft | 423 kts | 326° |
| 2026-04-20 14:13 | 13.37714 | 121.53133 | 20998 ft | 420 kts | 326° |
| 2026-04-20 14:13 | 13.40120 | 121.51448 | 20748 ft | 418 kts | 326° |
| 2026-04-20 14:14 | 13.42488 | 121.49788 | 20501 ft | 417 kts | 326° |
| 2026-04-20 14:14 | 13.44857 | 121.48128 | 20252 ft | 415 kts | 326° |
| 2026-04-20 14:14 | 13.47199 | 121.46486 | 20006 ft | 414 kts | 326° |
| 2026-04-20 14:14 | 13.49568 | 121.44824 | 19755 ft | 412 kts | 326° |
| 2026-04-20 14:15 | 13.51904 | 121.43186 | 19508 ft | 411 kts | 326° |
| 2026-04-20 14:15 | 13.54240 | 121.41547 | 19205 ft | 410 kts | 326° |
| 2026-04-20 14:15 | 13.56572 | 121.39910 | 18724 ft | 406 kts | 326° |
| 2026-04-20 14:15 | 13.58851 | 121.38272 | 18252 ft | 403 kts | 324° |
| 2026-04-20 14:16 | 13.61115 | 121.36585 | 17774 ft | 400 kts | 324° |
| 2026-04-20 14:16 | 13.63340 | 121.34915 | 17301 ft | 397 kts | 324° |
| 2026-04-20 14:16 | 13.65527 | 121.33266 | 16831 ft | 394 kts | 323° |
| 2026-04-20 14:16 | 13.67727 | 121.31608 | 16355 ft | 392 kts | 323° |
| 2026-04-20 14:17 | 13.69857 | 121.30007 | 15891 ft | 389 kts | 324° |
| 2026-04-20 14:17 | 13.72002 | 121.28400 | 15488 ft | 386 kts | 324° |
| 2026-04-20 14:17 | 13.74046 | 121.26872 | 15254 ft | 385 kts | 324° |
| 2026-04-20 14:17 | 13.76225 | 121.25249 | 15002 ft | 384 kts | 324° |
| 2026-04-20 14:18 | 13.78341 | 121.23673 | 14757 ft | 383 kts | 324° |
| 2026-04-20 14:18 | 13.80485 | 121.22076 | 14507 ft | 381 kts | 324° |
| 2026-04-20 14:18 | 13.82589 | 121.20508 | 14262 ft | 380 kts | 324° |
| 2026-04-20 14:18 | 13.84588 | 121.19018 | 14027 ft | 379 kts | 324° |
| 2026-04-20 14:19 | 13.88380 | 121.16189 | 13581 ft | 376 kts | 324° |
| 2026-04-20 14:19 | 13.90485 | 121.14619 | 13332 ft | 375 kts | 324° |
| 2026-04-20 14:19 | 13.92586 | 121.13052 | 13082 ft | 374 kts | 324° |
| 2026-04-20 14:20 | 13.94660 | 121.11504 | 12836 ft | 372 kts | 324° |
| 2026-04-20 14:20 | 13.96714 | 121.09971 | 12399 ft | 366 kts | 324° |
| 2026-04-20 14:20 | 13.98713 | 121.08476 | 11714 ft | 366 kts | 324° |
| 2026-04-20 14:20 | 14.00703 | 121.06984 | 11095 ft | 363 kts | 324° |
| 2026-04-20 14:21 | 14.02720 | 121.05473 | 10509 ft | 359 kts | 324° |
| 2026-04-20 14:21 | 14.04715 | 121.03981 | 10209 ft | 347 kts | 324° |
| 2026-04-20 14:21 | 14.06584 | 121.02583 | 9988 ft | 334 kts | 324° |
| 2026-04-20 14:21 | 14.08406 | 121.01219 | 9791 ft | 321 kts | 324° |
| 2026-04-20 14:22 | 14.10067 | 120.99974 | 9595 ft | 310 kts | 324° |
| 2026-04-20 14:22 | 14.11666 | 120.98783 | 9409 ft | 300 kts | 324° |
| 2026-04-20 14:22 | 14.13500 | 120.97419 | 9196 ft | 289 kts | 324° |
| 2026-04-20 14:22 | 14.15093 | 120.96233 | 8930 ft | 283 kts | 324° |
| 2026-04-20 14:23 | 14.16672 | 120.95058 | 8535 ft | 281 kts | 325° |
| 2026-04-20 14:23 | 14.18280 | 120.94005 | 8232 ft | 276 kts | 329° |
| 2026-04-20 14:23 | 14.19921 | 120.93027 | 7923 ft | 272 kts | 330° |
| 2026-04-20 14:23 | 14.21527 | 120.92087 | 7622 ft | 268 kts | 330° |
| 2026-04-20 14:24 | 14.23118 | 120.91154 | 7325 ft | 263 kts | 330° |
| 2026-04-20 14:24 | 14.24645 | 120.90252 | 7041 ft | 259 kts | 330° |
| 2026-04-20 14:24 | 14.26174 | 120.89352 | 6780 ft | 254 kts | 330° |
| 2026-04-20 14:24 | 14.27678 | 120.88467 | 6609 ft | 245 kts | 330° |
| 2026-04-20 14:25 | 14.29090 | 120.87640 | 6449 ft | 237 kts | 330° |
| 2026-04-20 14:25 | 14.30492 | 120.86822 | 6284 ft | 229 kts | 330° |
| 2026-04-20 14:25 | 14.31837 | 120.86037 | 6172 ft | 210 kts | 330° |
| 2026-04-20 14:25 | 14.33047 | 120.85332 | 5904 ft | 197 kts | 330° |
| 2026-04-20 14:26 | 14.34220 | 120.84647 | 5499 ft | 191 kts | 330° |
| 2026-04-20 14:26 | 14.35335 | 120.83995 | 5167 ft | 184 kts | 330° |
| 2026-04-20 14:26 | 14.36435 | 120.83352 | 4814 ft | 178 kts | 330° |
| 2026-04-20 14:26 | 14.37496 | 120.82731 | 4492 ft | 172 kts | 332° |
| 2026-04-20 14:27 | 14.38617 | 120.82408 | 4171 ft | 164 kts | 359° |
| 2026-04-20 14:27 | 14.39677 | 120.82710 | 3849 ft | 159 kts | 33° |
| 2026-04-20 14:27 | 14.40443 | 120.83470 | 3657 ft | 150 kts | 52° |
| 2026-04-20 14:27 | 14.41006 | 120.84307 | 3474 ft | 145 kts | 58° |
| 2026-04-20 14:28 | 14.41509 | 120.85169 | 3310 ft | 145 kts | 60° |
| 2026-04-20 14:28 | 14.41997 | 120.86041 | 3128 ft | 145 kts | 60° |
| 2026-04-20 14:28 | 14.42487 | 120.86923 | 2942 ft | 144 kts | 60° |
| 2026-04-20 14:28 | 14.42962 | 120.87779 | 2758 ft | 144 kts | 60° |
| 2026-04-20 14:29 | 14.43451 | 120.88662 | 2569 ft | 143 kts | 60° |
| 2026-04-20 14:29 | 14.43918 | 120.89501 | 2399 ft | 139 kts | 60° |
| 2026-04-20 14:29 | 14.44377 | 120.90327 | 2197 ft | 133 kts | 60° |
| 2026-04-20 14:29 | 14.44808 | 120.91101 | 2045 ft | 132 kts | 60° |
| 2026-04-20 14:30 | 14.45744 | 120.92786 | 1688 ft | 132 kts | 60° |
| 2026-04-20 14:30 | 14.46211 | 120.93624 | 1506 ft | 131 kts | 60° |
| 2026-04-20 14:30 | 14.46646 | 120.94405 | 1343 ft | 131 kts | 60° |
| 2026-04-20 14:31 | 14.47063 | 120.95157 | 1179 ft | 131 kts | 60° |
| 2026-04-20 14:31 | 14.47535 | 120.96007 | 1001 ft | 130 kts | 60° |
| 2026-04-20 14:31 | 14.48273 | 120.97336 | 717 ft | 130 kts | 60° |
| 2026-04-20 14:32 | 14.48597 | 120.97920 | 592 ft | 130 kts | 59° |
| 2026-04-20 14:32 | 14.48928 | 120.98499 | 469 ft | 129 kts | 60° |
| 2026-04-20 14:32 | 14.49274 | 120.99110 | 330 ft | 129 kts | 59° |
| 2026-04-20 14:33 | 14.50522 | 121.01341 | 84 ft | 65 kts | 62° |
| 2026-04-20 14:33 | 14.50672 | 121.01607 | 84 ft | 43 kts | 56° |
| 2026-04-20 14:34 | 14.50776 | 121.01723 | 84 ft | 16 kts | 40° |
| 2026-04-20 14:34 | 14.50833 | 121.01770 | 84 ft | 9 kts | 38° |
| 2026-04-20 14:34 | 14.50865 | 121.01787 | 84 ft | 6 kts | 1° |
| 2026-04-20 14:34 | 14.50901 | 121.01772 | 84 ft | 7 kts | 327° |
| 2026-04-20 14:35 | 14.50941 | 121.01736 | 84 ft | 12 kts | 316° |
| 2026-04-20 14:35 | 14.50994 | 121.01684 | 84 ft | 12 kts | 316° |
| 2026-04-20 14:35 | 14.51043 | 121.01631 | 84 ft | 13 kts | 314° |
| 2026-04-20 14:35 | 14.51099 | 121.01572 | 84 ft | 13 kts | 316° |
| 2026-04-20 14:36 | 14.51156 | 121.01514 | 84 ft | 14 kts | 315° |
| 2026-04-20 14:36 | 14.51214 | 121.01453 | 84 ft | 11 kts | 314° |
| 2026-04-20 14:36 | 14.51241 | 121.01429 | 84 ft | 6 kts | 329° |
| 2026-04-20 14:36 | 14.51278 | 121.01432 | 84 ft | 8 kts | 27° |
| 2026-04-20 14:37 | 14.51323 | 121.01480 | 84 ft | 13 kts | 50° |
| 2026-04-20 14:37 | 14.51371 | 121.01537 | 84 ft | 13 kts | 44° |
| 2026-04-20 14:37 | 14.51435 | 121.01585 | 84 ft | 13 kts | 2° |
| 2026-04-20 14:37 | 14.51500 | 121.01548 | 84 ft | 10 kts | 345° |
| 2026-04-20 14:38 | 14.51526 | 121.01564 | 84 ft | 3 kts | 66° |
| 2026-04-20 14:38 | 14.51540 | 121.01587 | 84 ft | 5 kts | 48° |
| 2026-04-20 14:38 | 14.51565 | 121.01612 | 84 ft | 6 kts | 44° |
| 2026-04-20 14:38 | 14.51572 | 121.01620 | 84 ft | 0 kts | 44° |